weather.gov     
National Weather Service

Terminal Aerodrome Forecast
NWS Homepage
This page is being discontinued on March 12, 2014.
The same data is available at this site. Please update your bookmarks.
Thank you, and we apologize for the inconvenience.
Please send an email to SR-SRH.Webmaster@noaa.gov with any concerns.


Current Version
Previous Version:    01  02  03  04  05  06  07  08  09  10  11  12  13  14  15  16  17  18  19  20  21  22  23  24  25  26  27  28  29  30  
   31  32  33  34  35  36  37  38  39  40  41  
[Printable]
576
FTUS45 KBOU 311127
TAFAPA
TAF
KAPA 311127Z 3112/0112 30003KT P6SM SCT045 BKN060 OVC100
     FM311700 33005KT P6SM SCT045 BKN060 BKN100
     FM312100 03007KT P6SM VCSH SCT040 BKN060
      TEMPO 3121/0101 5SM -SHRASN BKN040 OVC060
     FM010400 02014G20KT P6SM VCSH SCT020 BKN040
     FM010600 02012KT 3SM -SHSN SCT008 BKN014 OVC020
      TEMPO 0106/0110 1/2SM SHSN VV005=




576
FTUS45 KBOU 311127
TAFAPA
TAF
KAPA 311127Z 3112/0112 30003KT P6SM SCT045 BKN060 OVC100
     FM311700 33005KT P6SM SCT045 BKN060 BKN100
     FM312100 03007KT P6SM VCSH SCT040 BKN060
      TEMPO 3121/0101 5SM -SHRASN BKN040 OVC060
     FM010400 02014G20KT P6SM VCSH SCT020 BKN040
     FM010600 02012KT 3SM -SHSN SCT008 BKN014 OVC020
      TEMPO 0106/0110 1/2SM SHSN VV005=


U.S. Dept. of Commerce
NOAA National Weather Service
1325 East West Highway
Silver Spring, MD 20910
E-mail: w-nws.webmaster@noaa.gov
Page last modified: May 16, 2007
NATIONAL WEATHER SERVICE: for Safety, for Work, for Fun - FOR LIFE